sensor_id;sensor_type;location;lat;lon;timestamp;P1;durP1;ratioP1;P2;durP2;ratioP2
11386;SDS011;5748;53.102;8.456;2022-07-18T00:01:24;1.50;;;1.40;;
11386;SDS011;5748;53.102;8.456;2022-07-18T00:03:51;1.97;;;1.50;;
11386;SDS011;5748;53.102;8.456;2022-07-18T00:06:19;1.60;;;1.50;;
11386;SDS011;5748;53.102;8.456;2022-07-18T00:08:48;1.60;;;1.50;;
11386;SDS011;5748;53.102;8.456;2022-07-18T00:11:16;1.70;;;1.40;;
11386;SDS011;5748;53.102;8.456;2022-07-18T00:13:43;1.50;;;1.40;;
11386;SDS011;5748;53.102;8.456;2022-07-18T00:16:10;1.50;;;1.40;;
11386;SDS011;5748;53.102;8.456;2022-07-18T00:18:39;1.57;;;1.47;;
11386;SDS011;5748;53.102;8.456;2022-07-18T00:21:06;1.50;;;1.40;;
11386;SDS011;5748;53.102;8.456;2022-07-18T00:23:33;1.60;;;1.50;;
11386;SDS011;5748;53.102;8.456;2022-07-18T00:26:02;1.50;;;1.40;;
11386;SDS011;5748;53.102;8.456;2022-07-18T00:28:29;2.37;;;1.50;;
11386;SDS011;5748;53.102;8.456;2022-07-18T00:30:56;1.70;;;1.60;;
11386;SDS011;5748;53.102;8.456;2022-07-18T00:33:23;1.50;;;1.40;;
11386;SDS011;5748;53.102;8.456;2022-07-18T00:35:50;1.50;;;1.23;;
11386;SDS011;5748;53.102;8.456;2022-07-18T00:38:17;1.30;;;1.20;;
11386;SDS011;5748;53.102;8.456;2022-07-18T00:40:45;1.50;;;1.40;;
11386;SDS011;5748;53.102;8.456;2022-07-18T00:43:13;1.57;;;1.47;;
11386;SDS011;5748;53.102;8.456;2022-07-18T00:45:43;1.57;;;1.47;;
11386;SDS011;5748;53.102;8.456;2022-07-18T00:48:11;1.27;;;1.17;;
11386;SDS011;5748;53.102;8.456;2022-07-18T00:50:39;1.40;;;1.30;;
11386;SDS011;5748;53.102;8.456;2022-07-18T00:53:06;1.30;;;1.20;;
11386;SDS011;5748;53.102;8.456;2022-07-18T00:55:36;1.40;;;1.30;;
11386;SDS011;5748;53.102;8.456;2022-07-18T00:58:04;1.50;;;1.40;;
11386;SDS011;5748;53.102;8.456;2022-07-18T01:00:33;1.50;;;1.40;;
11386;SDS011;5748;53.102;8.456;2022-07-18T01:03:33;1.30;;;1.20;;
11386;SDS011;5748;53.102;8.456;2022-07-18T01:06:00;2.27;;;1.40;;
11386;SDS011;5748;53.102;8.456;2022-07-18T01:08:27;1.60;;;1.40;;
11386;SDS011;5748;53.102;8.456;2022-07-18T01:10:55;1.30;;;1.20;;
11386;SDS011;5748;53.102;8.456;2022-07-18T01:13:22;1.47;;;1.37;;
11386;SDS011;5748;53.102;8.456;2022-07-18T01:15:50;1.80;;;1.40;;
11386;SDS011;5748;53.102;8.456;2022-07-18T01:18:17;1.40;;;1.30;;
11386;SDS011;5748;53.102;8.456;2022-07-18T01:20:46;1.40;;;1.30;;
11386;SDS011;5748;53.102;8.456;2022-07-18T01:23:13;1.37;;;1.27;;
11386;SDS011;5748;53.102;8.456;2022-07-18T01:25:40;1.37;;;1.27;;
11386;SDS011;5748;53.102;8.456;2022-07-18T01:28:08;1.30;;;1.17;;
11386;SDS011;5748;53.102;8.456;2022-07-18T01:30:35;1.37;;;1.27;;
11386;SDS011;5748;53.102;8.456;2022-07-18T01:33:03;1.60;;;1.50;;
11386;SDS011;5748;53.102;8.456;2022-07-18T01:35:30;1.40;;;1.30;;
11386;SDS011;5748;53.102;8.456;2022-07-18T01:37:59;1.30;;;1.20;;
11386;SDS011;5748;53.102;8.456;2022-07-18T01:40:29;1.40;;;1.30;;
11386;SDS011;5748;53.102;8.456;2022-07-18T01:42:56;1.40;;;1.30;;
11386;SDS011;5748;53.102;8.456;2022-07-18T01:45:24;1.70;;;1.23;;
11386;SDS011;5748;53.102;8.456;2022-07-18T01:47:51;1.30;;;1.20;;
11386;SDS011;5748;53.102;8.456;2022-07-18T01:50:18;1.50;;;1.40;;
11386;SDS011;5748;53.102;8.456;2022-07-18T01:52:45;1.33;;;1.23;;
11386;SDS011;5748;53.102;8.456;2022-07-18T01:55:14;1.40;;;1.30;;
11386;SDS011;5748;53.102;8.456;2022-07-18T01:57:41;1.50;;;1.30;;
11386;SDS011;5748;53.102;8.456;2022-07-18T02:00:09;1.60;;;1.50;;
11386;SDS011;5748;53.102;8.456;2022-07-18T02:02:37;1.60;;;1.50;;
11386;SDS011;5748;53.102;8.456;2022-07-18T02:05:06;1.70;;;1.60;;
11386;SDS011;5748;53.102;8.456;2022-07-18T02:07:34;1.40;;;1.30;;
11386;SDS011;5748;53.102;8.456;2022-07-18T02:10:06;1.47;;;1.33;;
11386;SDS011;5748;53.102;8.456;2022-07-18T02:15:26;1.33;;;1.23;;
11386;SDS011;5748;53.102;8.456;2022-07-18T02:17:53;1.30;;;1.20;;
11386;SDS011;5748;53.102;8.456;2022-07-18T02:20:20;1.33;;;1.23;;
11386;SDS011;5748;53.102;8.456;2022-07-18T02:22:47;1.40;;;1.30;;
11386;SDS011;5748;53.102;8.456;2022-07-18T02:25:14;1.37;;;1.27;;
11386;SDS011;5748;53.102;8.456;2022-07-18T02:27:41;1.27;;;1.17;;
11386;SDS011;5748;53.102;8.456;2022-07-18T02:30:10;1.50;;;1.40;;
11386;SDS011;5748;53.102;8.456;2022-07-18T02:32:38;1.30;;;1.20;;
11386;SDS011;5748;53.102;8.456;2022-07-18T02:35:06;1.30;;;1.20;;
11386;SDS011;5748;53.102;8.456;2022-07-18T02:40:26;1.40;;;1.30;;
11386;SDS011;5748;53.102;8.456;2022-07-18T02:42:53;1.40;;;1.30;;
11386;SDS011;5748;53.102;8.456;2022-07-18T02:45:22;1.20;;;1.10;;
11386;SDS011;5748;53.102;8.456;2022-07-18T02:47:49;1.23;;;1.13;;
11386;SDS011;5748;53.102;8.456;2022-07-18T02:50:16;1.23;;;1.00;;
11386;SDS011;5748;53.102;8.456;2022-07-18T02:52:43;1.23;;;1.13;;
11386;SDS011;5748;53.102;8.456;2022-07-18T02:55:11;1.20;;;1.10;;
11386;SDS011;5748;53.102;8.456;2022-07-18T02:57:39;1.00;;;1.00;;
11386;SDS011;5748;53.102;8.456;2022-07-18T03:00:07;1.17;;;1.07;;
11386;SDS011;5748;53.102;8.456;2022-07-18T03:05:24;1.37;;;1.23;;
11386;SDS011;5748;53.102;8.456;2022-07-18T03:07:51;1.20;;;1.10;;
11386;SDS011;5748;53.102;8.456;2022-07-18T03:10:18;1.50;;;1.27;;
11386;SDS011;5748;53.102;8.456;2022-07-18T03:12:45;1.20;;;1.10;;
11386;SDS011;5748;53.102;8.456;2022-07-18T03:15:12;1.37;;;1.27;;
11386;SDS011;5748;53.102;8.456;2022-07-18T03:17:39;1.30;;;1.20;;
11386;SDS011;5748;53.102;8.456;2022-07-18T03:23:08;1.20;;;1.10;;
11386;SDS011;5748;53.102;8.456;2022-07-18T03:25:35;1.33;;;1.20;;
11386;SDS011;5748;53.102;8.456;2022-07-18T03:28:03;1.20;;;1.10;;
11386;SDS011;5748;53.102;8.456;2022-07-18T03:30:30;1.10;;;1.00;;
11386;SDS011;5748;53.102;8.456;2022-07-18T03:32:58;1.20;;;1.10;;
11386;SDS011;5748;53.102;8.456;2022-07-18T03:35:25;0.93;;;0.90;;
11386;SDS011;5748;53.102;8.456;2022-07-18T03:37:54;1.67;;;1.10;;
11386;SDS011;5748;53.102;8.456;2022-07-18T03:40:21;1.20;;;1.10;;
11386;SDS011;5748;53.102;8.456;2022-07-18T03:42:48;1.30;;;1.20;;
11386;SDS011;5748;53.102;8.456;2022-07-18T03:45:20;1.10;;;1.00;;
11386;SDS011;5748;53.102;8.456;2022-07-18T03:47:47;1.30;;;1.20;;
11386;SDS011;5748;53.102;8.456;2022-07-18T03:50:14;1.27;;;1.17;;
11386;SDS011;5748;53.102;8.456;2022-07-18T03:52:41;1.07;;;1.03;;
11386;SDS011;5748;53.102;8.456;2022-07-18T03:55:09;1.03;;;1.00;;
11386;SDS011;5748;53.102;8.456;2022-07-18T03:57:36;1.00;;;1.00;;
11386;SDS011;5748;53.102;8.456;2022-07-18T04:00:10;1.40;;;1.20;;
11386;SDS011;5748;53.102;8.456;2022-07-18T04:02:38;1.20;;;1.10;;
11386;SDS011;5748;53.102;8.456;2022-07-18T04:05:07;1.13;;;1.03;;
11386;SDS011;5748;53.102;8.456;2022-07-18T04:07:35;1.70;;;1.20;;
11386;SDS011;5748;53.102;8.456;2022-07-18T04:10:02;1.00;;;1.00;;
11386;SDS011;5748;53.102;8.456;2022-07-18T04:12:44;1.10;;;1.00;;
11386;SDS011;5748;53.102;8.456;2022-07-18T04:15:12;1.20;;;1.10;;
11386;SDS011;5748;53.102;8.456;2022-07-18T04:17:40;1.00;;;1.00;;
11386;SDS011;5748;53.102;8.456;2022-07-18T04:20:07;1.20;;;1.10;;
11386;SDS011;5748;53.102;8.456;2022-07-18T04:22:43;1.20;;;1.10;;
11386;SDS011;5748;53.102;8.456;2022-07-18T04:25:15;1.30;;;1.10;;
11386;SDS011;5748;53.102;8.456;2022-07-18T04:27:45;1.20;;;1.10;;
11386;SDS011;5748;53.102;8.456;2022-07-18T04:30:28;1.10;;;1.00;;
11386;SDS011;5748;53.102;8.456;2022-07-18T04:32:57;1.10;;;1.00;;
11386;SDS011;5748;53.102;8.456;2022-07-18T04:35:26;1.13;;;1.03;;
11386;SDS011;5748;53.102;8.456;2022-07-18T04:37:53;1.10;;;1.07;;
11386;SDS011;5748;53.102;8.456;2022-07-18T04:40:20;2.33;;;1.10;;
11386;SDS011;5748;53.102;8.456;2022-07-18T04:42:50;1.30;;;1.20;;
11386;SDS011;5748;53.102;8.456;2022-07-18T04:45:17;1.20;;;1.10;;
11386;SDS011;5748;53.102;8.456;2022-07-18T04:47:46;1.10;;;1.00;;
11386;SDS011;5748;53.102;8.456;2022-07-18T04:50:14;1.30;;;1.20;;
11386;SDS011;5748;53.102;8.456;2022-07-18T04:52:42;1.20;;;1.10;;
11386;SDS011;5748;53.102;8.456;2022-07-18T04:55:11;1.20;;;1.10;;
11386;SDS011;5748;53.102;8.456;2022-07-18T04:57:41;1.40;;;1.10;;
11386;SDS011;5748;53.102;8.456;2022-07-18T05:00:19;1.20;;;1.10;;
11386;SDS011;5748;53.102;8.456;2022-07-18T05:02:51;1.30;;;1.20;;
11386;SDS011;5748;53.102;8.456;2022-07-18T05:05:20;1.23;;;1.13;;
11386;SDS011;5748;53.102;8.456;2022-07-18T05:07:47;1.10;;;1.00;;
11386;SDS011;5748;53.102;8.456;2022-07-18T05:10:21;1.10;;;1.00;;
11386;SDS011;5748;53.102;8.456;2022-07-18T05:12:50;1.40;;;1.10;;
11386;SDS011;5748;53.102;8.456;2022-07-18T05:15:20;0.87;;;0.83;;
11386;SDS011;5748;53.102;8.456;2022-07-18T05:17:48;1.10;;;1.00;;
11386;SDS011;5748;53.102;8.456;2022-07-18T05:20:17;1.37;;;0.90;;
11386;SDS011;5748;53.102;8.456;2022-07-18T05:22:46;1.13;;;1.03;;
11386;SDS011;5748;53.102;8.456;2022-07-18T05:25:13;0.80;;;0.80;;
11386;SDS011;5748;53.102;8.456;2022-07-18T05:27:41;0.90;;;0.90;;
11386;SDS011;5748;53.102;8.456;2022-07-18T05:30:09;0.90;;;0.90;;
11386;SDS011;5748;53.102;8.456;2022-07-18T05:32:40;0.90;;;0.90;;
11386;SDS011;5748;53.102;8.456;2022-07-18T05:35:14;1.00;;;1.00;;
11386;SDS011;5748;53.102;8.456;2022-07-18T05:37:41;0.83;;;0.80;;
11386;SDS011;5748;53.102;8.456;2022-07-18T05:40:10;0.90;;;0.90;;
11386;SDS011;5748;53.102;8.456;2022-07-18T05:42:39;1.13;;;0.97;;
11386;SDS011;5748;53.102;8.456;2022-07-18T05:45:07;1.00;;;0.80;;
11386;SDS011;5748;53.102;8.456;2022-07-18T05:47:36;3.30;;;1.10;;
11386;SDS011;5748;53.102;8.456;2022-07-18T05:50:06;0.90;;;0.90;;
11386;SDS011;5748;53.102;8.456;2022-07-18T05:52:36;0.90;;;0.90;;
11386;SDS011;5748;53.102;8.456;2022-07-18T05:55:03;0.87;;;0.87;;
11386;SDS011;5748;53.102;8.456;2022-07-18T05:57:32;0.90;;;0.90;;
11386;SDS011;5748;53.102;8.456;2022-07-18T05:59:59;1.10;;;1.00;;
11386;SDS011;5748;53.102;8.456;2022-07-18T06:02:27;1.10;;;1.00;;
11386;SDS011;5748;53.102;8.456;2022-07-18T06:04:54;0.80;;;0.80;;
11386;SDS011;5748;53.102;8.456;2022-07-18T06:07:22;0.80;;;0.80;;
11386;SDS011;5748;53.102;8.456;2022-07-18T06:09:51;1.47;;;1.00;;
11386;SDS011;5748;53.102;8.456;2022-07-18T06:12:18;1.27;;;1.00;;
11386;SDS011;5748;53.102;8.456;2022-07-18T06:14:46;0.90;;;0.90;;
11386;SDS011;5748;53.102;8.456;2022-07-18T06:17:13;1.08;;;0.90;;
11386;SDS011;5748;53.102;8.456;2022-07-18T06:19:40;1.67;;;0.82;;
11386;SDS011;5748;53.102;8.456;2022-07-18T06:22:07;1.15;;;1.05;;
11386;SDS011;5748;53.102;8.456;2022-07-18T06:24:37;0.82;;;0.82;;
11386;SDS011;5748;53.102;8.456;2022-07-18T06:27:04;1.17;;;0.90;;
11386;SDS011;5748;53.102;8.456;2022-07-18T06:29:31;3.08;;;1.00;;
11386;SDS011;5748;53.102;8.456;2022-07-18T06:31:58;0.93;;;0.90;;
11386;SDS011;5748;53.102;8.456;2022-07-18T06:34:25;0.90;;;0.90;;
11386;SDS011;5748;53.102;8.456;2022-07-18T06:36:52;0.80;;;0.80;;
11386;SDS011;5748;53.102;8.456;2022-07-18T06:39:19;1.25;;;1.00;;
11386;SDS011;5748;53.102;8.456;2022-07-18T06:41:49;1.65;;;0.90;;
11386;SDS011;5748;53.102;8.456;2022-07-18T06:44:16;1.40;;;0.80;;
11386;SDS011;5748;53.102;8.456;2022-07-18T06:46:43;1.50;;;0.82;;
11386;SDS011;5748;53.102;8.456;2022-07-18T06:49:25;0.80;;;0.80;;
11386;SDS011;5748;53.102;8.456;2022-07-18T06:51:52;1.25;;;0.82;;
11386;SDS011;5748;53.102;8.456;2022-07-18T06:54:19;0.70;;;0.70;;
11386;SDS011;5748;53.102;8.456;2022-07-18T06:56:57;0.85;;;0.80;;
11386;SDS011;5748;53.102;8.456;2022-07-18T06:59:25;1.17;;;0.90;;
11386;SDS011;5748;53.102;8.456;2022-07-18T07:01:52;0.95;;;0.90;;
11386;SDS011;5748;53.102;8.456;2022-07-18T07:04:19;0.95;;;0.90;;
11386;SDS011;5748;53.102;8.456;2022-07-18T07:06:46;1.15;;;0.70;;
11386;SDS011;5748;53.102;8.456;2022-07-18T07:09:13;1.83;;;1.10;;
11386;SDS011;5748;53.102;8.456;2022-07-18T07:11:40;1.20;;;1.10;;
11386;SDS011;5748;53.102;8.456;2022-07-18T07:14:09;0.80;;;0.80;;
11386;SDS011;5748;53.102;8.456;2022-07-18T07:16:37;0.77;;;0.77;;
11386;SDS011;5748;53.102;8.456;2022-07-18T07:19:04;1.02;;;0.93;;
11386;SDS011;5748;53.102;8.456;2022-07-18T07:21:31;0.70;;;0.70;;
11386;SDS011;5748;53.102;8.456;2022-07-18T07:23:58;1.20;;;1.10;;
11386;SDS011;5748;53.102;8.456;2022-07-18T07:26:25;1.52;;;1.00;;
11386;SDS011;5748;53.102;8.456;2022-07-18T07:28:52;0.75;;;0.70;;
11386;SDS011;5748;53.102;8.456;2022-07-18T07:31:21;0.80;;;0.80;;
11386;SDS011;5748;53.102;8.456;2022-07-18T07:33:57;0.80;;;0.80;;
11386;SDS011;5748;53.102;8.456;2022-07-18T07:36:24;0.60;;;0.60;;
11386;SDS011;5748;53.102;8.456;2022-07-18T07:38:57;0.80;;;0.80;;
11386;SDS011;5748;53.102;8.456;2022-07-18T07:41:25;1.08;;;0.60;;
11386;SDS011;5748;53.102;8.456;2022-07-18T07:43:52;0.75;;;0.75;;
11386;SDS011;5748;53.102;8.456;2022-07-18T07:46:20;2.17;;;0.70;;
11386;SDS011;5748;53.102;8.456;2022-07-18T07:48:47;0.73;;;0.70;;
11386;SDS011;5748;53.102;8.456;2022-07-18T07:51:14;0.70;;;0.70;;
11386;SDS011;5748;53.102;8.456;2022-07-18T07:53:41;0.60;;;0.60;;
11386;SDS011;5748;53.102;8.456;2022-07-18T07:56:08;0.68;;;0.68;;
11386;SDS011;5748;53.102;8.456;2022-07-18T08:01:18;0.75;;;0.75;;
11386;SDS011;5748;53.102;8.456;2022-07-18T08:03:47;0.73;;;0.73;;
11386;SDS011;5748;53.102;8.456;2022-07-18T08:06:14;0.75;;;0.68;;
11386;SDS011;5748;53.102;8.456;2022-07-18T08:08:51;1.40;;;1.13;;
11386;SDS011;5748;53.102;8.456;2022-07-18T08:11:20;0.90;;;0.60;;
11386;SDS011;5748;53.102;8.456;2022-07-18T08:13:48;0.50;;;0.50;;
11386;SDS011;5748;53.102;8.456;2022-07-18T08:16:15;0.85;;;0.85;;
11386;SDS011;5748;53.102;8.456;2022-07-18T08:18:50;0.70;;;0.70;;
11386;SDS011;5748;53.102;8.456;2022-07-18T08:21:18;0.70;;;0.70;;
11386;SDS011;5748;53.102;8.456;2022-07-18T08:23:46;0.80;;;0.70;;
11386;SDS011;5748;53.102;8.456;2022-07-18T08:26:14;1.00;;;0.80;;
11386;SDS011;5748;53.102;8.456;2022-07-18T08:31:13;2.30;;;0.70;;
11386;SDS011;5748;53.102;8.456;2022-07-18T08:33:41;0.70;;;0.70;;
11386;SDS011;5748;53.102;8.456;2022-07-18T08:36:10;0.60;;;0.60;;
11386;SDS011;5748;53.102;8.456;2022-07-18T08:38:43;1.33;;;0.93;;
11386;SDS011;5748;53.102;8.456;2022-07-18T08:41:10;0.70;;;0.70;;
11386;SDS011;5748;53.102;8.456;2022-07-18T08:43:38;2.50;;;0.70;;
11386;SDS011;5748;53.102;8.456;2022-07-18T08:46:13;0.70;;;0.70;;
11386;SDS011;5748;53.102;8.456;2022-07-18T08:48:42;0.95;;;0.88;;
11386;SDS011;5748;53.102;8.456;2022-07-18T08:51:15;0.75;;;0.68;;
11386;SDS011;5748;53.102;8.456;2022-07-18T08:53:42;0.68;;;0.68;;
11386;SDS011;5748;53.102;8.456;2022-07-18T08:56:14;0.80;;;0.80;;
11386;SDS011;5748;53.102;8.456;2022-07-18T08:58:41;1.17;;;0.80;;
11386;SDS011;5748;53.102;8.456;2022-07-18T09:01:08;0.70;;;0.70;;
11386;SDS011;5748;53.102;8.456;2022-07-18T09:03:35;0.70;;;0.70;;
11386;SDS011;5748;53.102;8.456;2022-07-18T09:06:03;0.77;;;0.77;;
11386;SDS011;5748;53.102;8.456;2022-07-18T09:08:56;1.02;;;0.93;;
11386;SDS011;5748;53.102;8.456;2022-07-18T09:11:25;2.63;;;0.80;;
11386;SDS011;5748;53.102;8.456;2022-07-18T09:13:52;1.02;;;0.93;;
11386;SDS011;5748;53.102;8.456;2022-07-18T09:16:22;1.70;;;0.90;;
11386;SDS011;5748;53.102;8.456;2022-07-18T09:18:49;2.22;;;0.93;;
11386;SDS011;5748;53.102;8.456;2022-07-18T09:21:17;1.38;;;1.00;;
11386;SDS011;5748;53.102;8.456;2022-07-18T09:23:51;0.80;;;0.80;;
11386;SDS011;5748;53.102;8.456;2022-07-18T09:26:41;1.00;;;0.90;;
11386;SDS011;5748;53.102;8.456;2022-07-18T09:29:13;1.45;;;1.05;;
11386;SDS011;5748;53.102;8.456;2022-07-18T09:31:45;1.23;;;1.08;;
11386;SDS011;5748;53.102;8.456;2022-07-18T09:34:15;1.45;;;1.00;;
11386;SDS011;5748;53.102;8.456;2022-07-18T09:36:59;1.20;;;1.10;;
11386;SDS011;5748;53.102;8.456;2022-07-18T09:39:28;1.10;;;1.00;;
11386;SDS011;5748;53.102;8.456;2022-07-18T09:41:59;1.42;;;1.17;;
11386;SDS011;5748;53.102;8.456;2022-07-18T09:44:39;1.63;;;1.23;;
11386;SDS011;5748;53.102;8.456;2022-07-18T09:47:06;1.17;;;1.08;;
11386;SDS011;5748;53.102;8.456;2022-07-18T09:49:34;2.78;;;1.00;;
11386;SDS011;5748;53.102;8.456;2022-07-18T09:52:06;1.20;;;1.10;;
11386;SDS011;5748;53.102;8.456;2022-07-18T09:54:40;1.45;;;1.30;;
11386;SDS011;5748;53.102;8.456;2022-07-18T09:57:10;1.38;;;1.20;;
11386;SDS011;5748;53.102;8.456;2022-07-18T09:59:49;1.50;;;1.30;;
11386;SDS011;5748;53.102;8.456;2022-07-18T10:02:16;1.60;;;1.50;;
11386;SDS011;5748;53.102;8.456;2022-07-18T10:04:43;1.40;;;1.30;;
11386;SDS011;5748;53.102;8.456;2022-07-18T10:07:10;1.40;;;1.30;;
11386;SDS011;5748;53.102;8.456;2022-07-18T10:12:31;1.35;;;1.20;;
11386;SDS011;5748;53.102;8.456;2022-07-18T10:14:59;1.63;;;1.50;;
11386;SDS011;5748;53.102;8.456;2022-07-18T10:17:28;1.98;;;1.40;;
11386;SDS011;5748;53.102;8.456;2022-07-18T10:19:55;1.90;;;1.50;;
11386;SDS011;5748;53.102;8.456;2022-07-18T10:22:33;2.85;;;1.52;;
11386;SDS011;5748;53.102;8.456;2022-07-18T10:25:06;1.45;;;1.35;;
11386;SDS011;5748;53.102;8.456;2022-07-18T10:27:48;1.63;;;1.52;;
11386;SDS011;5748;53.102;8.456;2022-07-18T10:30:17;1.45;;;1.35;;
11386;SDS011;5748;53.102;8.456;2022-07-18T10:33:00;1.45;;;1.35;;
11386;SDS011;5748;53.102;8.456;2022-07-18T10:38:28;1.67;;;1.58;;
11386;SDS011;5748;53.102;8.456;2022-07-18T10:41:07;1.63;;;1.52;;
11386;SDS011;5748;53.102;8.456;2022-07-18T10:43:38;1.98;;;1.88;;
11386;SDS011;5748;53.102;8.456;2022-07-18T10:46:10;1.80;;;1.70;;
11386;SDS011;5748;53.102;8.456;2022-07-18T10:48:54;1.77;;;1.63;;
11386;SDS011;5748;53.102;8.456;2022-07-18T10:51:29;1.75;;;1.65;;
11386;SDS011;5748;53.102;8.456;2022-07-18T10:59:35;1.60;;;1.50;;
11386;SDS011;5748;53.102;8.456;2022-07-18T11:02:04;1.80;;;1.58;;
11386;SDS011;5748;53.102;8.456;2022-07-18T11:04:34;1.60;;;1.50;;
11386;SDS011;5748;53.102;8.456;2022-07-18T11:07:10;1.45;;;1.35;;
11386;SDS011;5748;53.102;8.456;2022-07-18T11:09:40;1.80;;;1.70;;
11386;SDS011;5748;53.102;8.456;2022-07-18T11:12:21;1.50;;;1.40;;
11386;SDS011;5748;53.102;8.456;2022-07-18T11:15:07;1.60;;;1.50;;
11386;SDS011;5748;53.102;8.456;2022-07-18T11:17:56;1.35;;;1.25;;
11386;SDS011;5748;53.102;8.456;2022-07-18T11:20:33;1.73;;;1.50;;
11386;SDS011;5748;53.102;8.456;2022-07-18T11:23:10;1.35;;;1.25;;
11386;SDS011;5748;53.102;8.456;2022-07-18T11:25:42;1.60;;;1.50;;
11386;SDS011;5748;53.102;8.456;2022-07-18T11:28:10;1.70;;;1.60;;
11386;SDS011;5748;53.102;8.456;2022-07-18T11:30:38;1.63;;;1.52;;
11386;SDS011;5748;53.102;8.456;2022-07-18T11:33:19;1.77;;;1.67;;
11386;SDS011;5748;53.102;8.456;2022-07-18T11:35:49;1.67;;;1.58;;
11386;SDS011;5748;53.102;8.456;2022-07-18T11:38:16;1.60;;;1.50;;
11386;SDS011;5748;53.102;8.456;2022-07-18T11:40:48;2.50;;;1.60;;
11386;SDS011;5748;53.102;8.456;2022-07-18T11:43:20;1.77;;;1.67;;
11386;SDS011;5748;53.102;8.456;2022-07-18T11:45:58;1.70;;;1.60;;
11386;SDS011;5748;53.102;8.456;2022-07-18T11:48:26;1.80;;;1.63;;
11386;SDS011;5748;53.102;8.456;2022-07-18T11:50:53;1.70;;;1.60;;
11386;SDS011;5748;53.102;8.456;2022-07-18T11:53:21;1.67;;;1.58;;
11386;SDS011;5748;53.102;8.456;2022-07-18T11:55:48;1.60;;;1.50;;
11386;SDS011;5748;53.102;8.456;2022-07-18T11:58:16;1.60;;;1.50;;
11386;SDS011;5748;53.102;8.456;2022-07-18T12:00:45;1.90;;;1.80;;
11386;SDS011;5748;53.102;8.456;2022-07-18T12:03:17;1.88;;;1.77;;
11386;SDS011;5748;53.102;8.456;2022-07-18T12:05:49;1.80;;;1.70;;
11386;SDS011;5748;53.102;8.456;2022-07-18T12:08:24;1.88;;;1.77;;
11386;SDS011;5748;53.102;8.456;2022-07-18T12:13:51;1.77;;;1.67;;
11386;SDS011;5748;53.102;8.456;2022-07-18T12:16:29;1.70;;;1.60;;
11386;SDS011;5748;53.102;8.456;2022-07-18T12:19:02;1.85;;;1.75;;
11386;SDS011;5748;53.102;8.456;2022-07-18T12:24:26;2.20;;;1.65;;
11386;SDS011;5748;53.102;8.456;2022-07-18T12:27:07;1.75;;;1.65;;
11386;SDS011;5748;53.102;8.456;2022-07-18T12:29:53;1.85;;;1.75;;
11386;SDS011;5748;53.102;8.456;2022-07-18T12:32:47;3.50;;;1.50;;
11386;SDS011;5748;53.102;8.456;2022-07-18T12:35:26;1.50;;;1.40;;
11386;SDS011;5748;53.102;8.456;2022-07-18T12:37:57;1.70;;;1.60;;
11386;SDS011;5748;53.102;8.456;2022-07-18T12:40:26;1.50;;;1.40;;
11386;SDS011;5748;53.102;8.456;2022-07-18T12:43:08;1.60;;;1.50;;
11386;SDS011;5748;53.102;8.456;2022-07-18T12:45:37;1.70;;;1.60;;
11386;SDS011;5748;53.102;8.456;2022-07-18T12:48:07;1.58;;;1.48;;
11386;SDS011;5748;53.102;8.456;2022-07-18T12:50:36;2.95;;;1.65;;
11386;SDS011;5748;53.102;8.456;2022-07-18T12:53:04;2.00;;;1.85;;
11386;SDS011;5748;53.102;8.456;2022-07-18T12:55:31;1.60;;;1.50;;
11386;SDS011;5748;53.102;8.456;2022-07-18T12:57:59;1.65;;;1.55;;
11386;SDS011;5748;53.102;8.456;2022-07-18T13:00:26;1.50;;;1.40;;
11386;SDS011;5748;53.102;8.456;2022-07-18T13:02:55;1.73;;;1.63;;
11386;SDS011;5748;53.102;8.456;2022-07-18T13:05:35;1.77;;;1.67;;
11386;SDS011;5748;53.102;8.456;2022-07-18T13:08:02;1.70;;;1.60;;
11386;SDS011;5748;53.102;8.456;2022-07-18T13:14:17;1.77;;;1.67;;
11386;SDS011;5748;53.102;8.456;2022-07-18T13:16:45;2.08;;;1.90;;
11386;SDS011;5748;53.102;8.456;2022-07-18T13:19:17;1.80;;;1.70;;
11386;SDS011;5748;53.102;8.456;2022-07-18T13:22:13;1.90;;;1.80;;
11386;SDS011;5748;53.102;8.456;2022-07-18T13:24:51;2.38;;;1.83;;
11386;SDS011;5748;53.102;8.456;2022-07-18T13:30:32;1.90;;;1.60;;
11386;SDS011;5748;53.102;8.456;2022-07-18T13:32:59;1.85;;;1.75;;
11386;SDS011;5748;53.102;8.456;2022-07-18T13:36:03;1.70;;;1.60;;
11386;SDS011;5748;53.102;8.456;2022-07-18T13:45:55;1.80;;;1.67;;
11386;SDS011;5748;53.102;8.456;2022-07-18T13:48:34;1.95;;;1.80;;
11386;SDS011;5748;53.102;8.456;2022-07-18T13:51:11;2.58;;;1.90;;
11386;SDS011;5748;53.102;8.456;2022-07-18T13:56:54;1.85;;;1.75;;
11386;SDS011;5748;53.102;8.456;2022-07-18T13:59:21;2.00;;;1.80;;
11386;SDS011;5748;53.102;8.456;2022-07-18T14:01:50;1.92;;;1.83;;
11386;SDS011;5748;53.102;8.456;2022-07-18T14:04:23;1.95;;;1.85;;
11386;SDS011;5748;53.102;8.456;2022-07-18T14:06:50;2.20;;;2.03;;
11386;SDS011;5748;53.102;8.456;2022-07-18T14:09:19;1.90;;;1.80;;
11386;SDS011;5748;53.102;8.456;2022-07-18T14:11:49;1.60;;;1.50;;
11386;SDS011;5748;53.102;8.456;2022-07-18T14:14:22;2.30;;;2.10;;
11386;SDS011;5748;53.102;8.456;2022-07-18T14:16:49;1.90;;;1.80;;
11386;SDS011;5748;53.102;8.456;2022-07-18T14:19:19;2.05;;;1.88;;
11386;SDS011;5748;53.102;8.456;2022-07-18T14:21:50;1.90;;;1.80;;
11386;SDS011;5748;53.102;8.456;2022-07-18T14:24:21;1.80;;;1.70;;
11386;SDS011;5748;53.102;8.456;2022-07-18T14:27:02;1.90;;;1.80;;
11386;SDS011;5748;53.102;8.456;2022-07-18T14:29:33;1.85;;;1.75;;
11386;SDS011;5748;53.102;8.456;2022-07-18T14:32:20;1.90;;;1.80;;
11386;SDS011;5748;53.102;8.456;2022-07-18T14:34:50;2.17;;;1.80;;
11386;SDS011;5748;53.102;8.456;2022-07-18T14:37:17;1.52;;;1.40;;
11386;SDS011;5748;53.102;8.456;2022-07-18T14:42:22;2.10;;;1.70;;
11386;SDS011;5748;53.102;8.456;2022-07-18T14:44:57;4.00;;;1.75;;
11386;SDS011;5748;53.102;8.456;2022-07-18T14:47:26;1.92;;;1.73;;
11386;SDS011;5748;53.102;8.456;2022-07-18T14:49:58;1.55;;;1.45;;
11386;SDS011;5748;53.102;8.456;2022-07-18T14:52:25;1.80;;;1.70;;
11386;SDS011;5748;53.102;8.456;2022-07-18T14:54:53;1.95;;;1.83;;
11386;SDS011;5748;53.102;8.456;2022-07-18T14:57:21;1.80;;;1.70;;
11386;SDS011;5748;53.102;8.456;2022-07-18T14:59:48;1.80;;;1.70;;
11386;SDS011;5748;53.102;8.456;2022-07-18T15:02:15;2.10;;;1.90;;
11386;SDS011;5748;53.102;8.456;2022-07-18T15:04:49;1.77;;;1.67;;
11386;SDS011;5748;53.102;8.456;2022-07-18T15:07:16;2.20;;;2.00;;
11386;SDS011;5748;53.102;8.456;2022-07-18T15:09:43;1.98;;;1.88;;
11386;SDS011;5748;53.102;8.456;2022-07-18T15:12:11;2.30;;;2.10;;
11386;SDS011;5748;53.102;8.456;2022-07-18T15:14:40;1.70;;;1.60;;
11386;SDS011;5748;53.102;8.456;2022-07-18T15:17:07;2.20;;;2.00;;
11386;SDS011;5748;53.102;8.456;2022-07-18T15:19:35;2.33;;;1.95;;
11386;SDS011;5748;53.102;8.456;2022-07-18T15:22:03;2.85;;;1.80;;
11386;SDS011;5748;53.102;8.456;2022-07-18T15:32:22;2.13;;;1.92;;
11386;SDS011;5748;53.102;8.456;2022-07-18T15:35:05;1.98;;;1.77;;
11386;SDS011;5748;53.102;8.456;2022-07-18T15:37:38;1.92;;;1.70;;
11386;SDS011;5748;53.102;8.456;2022-07-18T15:40:06;2.10;;;1.90;;
11386;SDS011;5748;53.102;8.456;2022-07-18T15:42:40;1.80;;;1.70;;
11386;SDS011;5748;53.102;8.456;2022-07-18T15:45:09;1.92;;;1.83;;
11386;SDS011;5748;53.102;8.456;2022-07-18T15:47:36;2.22;;;2.03;;
11386;SDS011;5748;53.102;8.456;2022-07-18T15:50:04;1.95;;;1.77;;
11386;SDS011;5748;53.102;8.456;2022-07-18T15:52:42;1.92;;;1.83;;
11386;SDS011;5748;53.102;8.456;2022-07-18T15:58:06;1.90;;;1.80;;
11386;SDS011;5748;53.102;8.456;2022-07-18T16:00:35;2.55;;;1.85;;
11386;SDS011;5748;53.102;8.456;2022-07-18T16:03:05;2.00;;;1.88;;
11386;SDS011;5748;53.102;8.456;2022-07-18T16:11:08;2.00;;;1.90;;
11386;SDS011;5748;53.102;8.456;2022-07-18T16:13:37;1.90;;;1.80;;
11386;SDS011;5748;53.102;8.456;2022-07-18T16:16:14;2.03;;;1.85;;
11386;SDS011;5748;53.102;8.456;2022-07-18T16:18:52;1.73;;;1.63;;
11386;SDS011;5748;53.102;8.456;2022-07-18T16:21:33;1.90;;;1.80;;
11386;SDS011;5748;53.102;8.456;2022-07-18T16:24:00;1.75;;;1.65;;
11386;SDS011;5748;53.102;8.456;2022-07-18T16:26:28;1.92;;;1.83;;
11386;SDS011;5748;53.102;8.456;2022-07-18T16:33:04;1.65;;;1.55;;